Terminal Aerodrome Forecast
Issued by NWS

Home | Current Version | Previous Version | Text Only | Print | Product List | Glossary On
Versions: 1 2 3 4 5 6 7 8 9 10 11 12
000
FTUS42 TJSJ 311100
TAFNCM
TAF
TNCM 311133Z 3112/0112 VRB05KT P6SM SCT020
      TEMPO 3112/3114 -SHRA SCT017
     FM311400 07010KT P6SM VCSH SCT022
     FM312300 VRB06KT P6SM VCSH SCT018 SCT040=

USA.gov is the U.S. government's official web portal to all federal, state and local government web resources and services.